sensor_id;sensor_type;location;lat;lon;timestamp;pressure;altitude;pressure_sealevel;temperature;humidity
36526;BME280;74736;46.798;9.824;2024-02-21T00:02:22;87015.08;;;-7.24;42.69
36526;BME280;74736;46.798;9.824;2024-02-21T00:04:49;87011.86;;;-7.87;43.76
36526;BME280;74736;46.798;9.824;2024-02-21T00:07:17;87012.13;;;-7.71;43.69
36526;BME280;74736;46.798;9.824;2024-02-21T00:09:43;87014.51;;;-8.43;43.93
36526;BME280;74736;46.798;9.824;2024-02-21T00:12:10;87020.11;;;-7.92;43.90
36526;BME280;74736;46.798;9.824;2024-02-21T00:14:38;87023.13;;;-8.51;43.93
36526;BME280;74736;46.798;9.824;2024-02-21T00:17:05;87020.34;;;-7.73;42.16
36526;BME280;74736;46.798;9.824;2024-02-21T00:19:32;87016.31;;;-6.80;42.04
36526;BME280;74736;46.798;9.824;2024-02-21T00:21:59;87011.19;;;-7.39;42.62
36526;BME280;74736;46.798;9.824;2024-02-21T00:24:26;87004.88;;;-7.15;41.40
36526;BME280;74736;46.798;9.824;2024-02-21T00:26:53;87002.10;;;-6.15;39.73
36526;BME280;74736;46.798;9.824;2024-02-21T00:29:20;87005.84;;;-8.21;41.85
36526;BME280;74736;46.798;9.824;2024-02-21T00:31:49;87006.39;;;-7.47;41.87
36526;BME280;74736;46.798;9.824;2024-02-21T00:34:15;86997.75;;;-8.29;43.56
36526;BME280;74736;46.798;9.824;2024-02-21T00:36:42;86991.69;;;-8.84;43.94
36526;BME280;74736;46.798;9.824;2024-02-21T00:39:09;86988.54;;;-8.50;44.14
36526;BME280;74736;46.798;9.824;2024-02-21T00:41:35;86994.03;;;-8.12;44.06
36526;BME280;74736;46.798;9.824;2024-02-21T00:44:02;86996.55;;;-9.67;44.51
36526;BME280;74736;46.798;9.824;2024-02-21T00:46:29;86992.42;;;-9.20;44.97
36526;BME280;74736;46.798;9.824;2024-02-21T00:48:56;86987.09;;;-7.85;43.55
36526;BME280;74736;46.798;9.824;2024-02-21T00:51:23;86985.45;;;-7.47;41.61
36526;BME280;74736;46.798;9.824;2024-02-21T00:53:49;86986.61;;;-7.66;41.00
36526;BME280;74736;46.798;9.824;2024-02-21T00:56:16;86986.43;;;-8.00;41.03
36526;BME280;74736;46.798;9.824;2024-02-21T00:58:43;86990.12;;;-8.57;41.67
36526;BME280;74736;46.798;9.824;2024-02-21T01:01:10;86992.47;;;-7.95;41.57
36526;BME280;74736;46.798;9.824;2024-02-21T01:03:39;87000.32;;;-7.60;41.20
36526;BME280;74736;46.798;9.824;2024-02-21T01:06:07;87003.10;;;-8.69;41.76
36526;BME280;74736;46.798;9.824;2024-02-21T01:08:33;86999.50;;;-7.90;42.65
36526;BME280;74736;46.798;9.824;2024-02-21T01:11:00;86992.50;;;-8.32;41.81
36526;BME280;74736;46.798;9.824;2024-02-21T01:13:27;86989.04;;;-8.07;41.97
36526;BME280;74736;46.798;9.824;2024-02-21T01:15:54;86983.22;;;-7.93;41.08
36526;BME280;74736;46.798;9.824;2024-02-21T01:18:21;86982.90;;;-8.11;42.84
36526;BME280;74736;46.798;9.824;2024-02-21T01:20:48;86982.19;;;-8.31;42.55
36526;BME280;74736;46.798;9.824;2024-02-21T01:23:15;86978.40;;;-9.05;42.90
36526;BME280;74736;46.798;9.824;2024-02-21T01:25:42;86977.90;;;-9.37;44.06
36526;BME280;74736;46.798;9.824;2024-02-21T01:28:09;86968.69;;;-9.11;41.67
36526;BME280;74736;46.798;9.824;2024-02-21T01:30:37;86969.40;;;-9.39;42.41
36526;BME280;74736;46.798;9.824;2024-02-21T01:33:04;86966.07;;;-7.43;40.68
36526;BME280;74736;46.798;9.824;2024-02-21T01:35:31;86967.63;;;-9.09;42.04
36526;BME280;74736;46.798;9.824;2024-02-21T01:37:57;86962.26;;;-7.96;41.59
36526;BME280;74736;46.798;9.824;2024-02-21T01:40:24;86951.31;;;-7.82;41.10
36526;BME280;74736;46.798;9.824;2024-02-21T01:42:53;86947.72;;;-8.12;41.66
36526;BME280;74736;46.798;9.824;2024-02-21T01:45:21;86946.04;;;-8.82;42.38
36526;BME280;74736;46.798;9.824;2024-02-21T01:47:48;86939.61;;;-8.70;43.06
36526;BME280;74736;46.798;9.824;2024-02-21T01:50:17;86938.23;;;-8.81;41.69
36526;BME280;74736;46.798;9.824;2024-02-21T01:52:46;86936.64;;;-8.56;41.73
36526;BME280;74736;46.798;9.824;2024-02-21T01:55:14;86934.64;;;-8.65;41.43
36526;BME280;74736;46.798;9.824;2024-02-21T01:57:43;86931.15;;;-8.31;39.98
36526;BME280;74736;46.798;9.824;2024-02-21T02:00:12;86933.43;;;-8.96;41.24
36526;BME280;74736;46.798;9.824;2024-02-21T02:02:40;86933.85;;;-8.34;42.44
36526;BME280;74736;46.798;9.824;2024-02-21T02:05:09;86929.81;;;-8.60;42.36
36526;BME280;74736;46.798;9.824;2024-02-21T02:07:37;86927.94;;;-7.65;40.41
36526;BME280;74736;46.798;9.824;2024-02-21T02:10:05;86927.33;;;-8.47;41.10
36526;BME280;74736;46.798;9.824;2024-02-21T02:12:32;86931.30;;;-9.03;41.68
36526;BME280;74736;46.798;9.824;2024-02-21T02:14:59;86933.52;;;-8.52;42.16
36526;BME280;74736;46.798;9.824;2024-02-21T02:17:26;86934.95;;;-9.22;43.22
36526;BME280;74736;46.798;9.824;2024-02-21T02:19:53;86931.82;;;-8.23;41.79
36526;BME280;74736;46.798;9.824;2024-02-21T02:22:23;86932.46;;;-8.27;40.48
36526;BME280;74736;46.798;9.824;2024-02-21T02:24:53;86938.99;;;-9.29;41.61
36526;BME280;74736;46.798;9.824;2024-02-21T02:27:21;86941.04;;;-10.17;42.04
36526;BME280;74736;46.798;9.824;2024-02-21T02:29:48;86939.01;;;-8.56;43.04
36526;BME280;74736;46.798;9.824;2024-02-21T02:32:15;86931.85;;;-7.93;41.76
36526;BME280;74736;46.798;9.824;2024-02-21T02:34:42;86924.34;;;-8.44;41.77
36526;BME280;74736;46.798;9.824;2024-02-21T02:37:09;86915.95;;;-8.08;42.00
36526;BME280;74736;46.798;9.824;2024-02-21T02:39:36;86915.14;;;-8.86;42.32
36526;BME280;74736;46.798;9.824;2024-02-21T02:42:03;86915.88;;;-8.86;41.95
36526;BME280;74736;46.798;9.824;2024-02-21T02:44:30;86919.58;;;-9.03;41.71
36526;BME280;74736;46.798;9.824;2024-02-21T02:46:57;86920.89;;;-10.33;41.68
36526;BME280;74736;46.798;9.824;2024-02-21T02:49:24;86925.41;;;-8.90;41.07
36526;BME280;74736;46.798;9.824;2024-02-21T02:51:52;86926.38;;;-8.54;40.63
36526;BME280;74736;46.798;9.824;2024-02-21T02:54:19;86920.74;;;-8.39;40.25
36526;BME280;74736;46.798;9.824;2024-02-21T02:56:45;86921.71;;;-7.58;39.46
36526;BME280;74736;46.798;9.824;2024-02-21T02:59:12;86917.72;;;-7.77;38.41
36526;BME280;74736;46.798;9.824;2024-02-21T03:01:39;86912.19;;;-7.63;38.39
36526;BME280;74736;46.798;9.824;2024-02-21T03:04:06;86907.52;;;-8.16;38.62
36526;BME280;74736;46.798;9.824;2024-02-21T03:06:33;86903.75;;;-8.16;38.72
36526;BME280;74736;46.798;9.824;2024-02-21T03:09:00;86902.90;;;-8.02;39.13
36526;BME280;74736;46.798;9.824;2024-02-21T03:11:27;86898.28;;;-9.11;41.26
36526;BME280;74736;46.798;9.824;2024-02-21T03:13:55;86891.16;;;-8.41;40.94
36526;BME280;74736;46.798;9.824;2024-02-21T03:16:22;86887.57;;;-8.10;40.59
36526;BME280;74736;46.798;9.824;2024-02-21T03:18:49;86883.81;;;-8.03;39.87
36526;BME280;74736;46.798;9.824;2024-02-21T03:21:16;86880.71;;;-6.75;38.23
36526;BME280;74736;46.798;9.824;2024-02-21T03:23:43;86877.03;;;-7.45;38.83
36526;BME280;74736;46.798;9.824;2024-02-21T03:26:09;86875.95;;;-7.10;38.53
36526;BME280;74736;46.798;9.824;2024-02-21T03:28:36;86878.67;;;-8.97;40.19
36526;BME280;74736;46.798;9.824;2024-02-21T03:31:03;86877.32;;;-8.20;39.98
36526;BME280;74736;46.798;9.824;2024-02-21T03:33:31;86881.33;;;-8.40;39.80
36526;BME280;74736;46.798;9.824;2024-02-21T03:35:57;86887.21;;;-8.44;40.04
36526;BME280;74736;46.798;9.824;2024-02-21T03:38:24;86882.57;;;-9.04;41.03
36526;BME280;74736;46.798;9.824;2024-02-21T03:40:51;86885.25;;;-9.41;40.87
36526;BME280;74736;46.798;9.824;2024-02-21T03:43:18;86879.68;;;-8.50;39.44
36526;BME280;74736;46.798;9.824;2024-02-21T03:45:45;86884.95;;;-9.71;40.19
36526;BME280;74736;46.798;9.824;2024-02-21T03:48:12;86883.47;;;-8.28;39.68
36526;BME280;74736;46.798;9.824;2024-02-21T03:50:39;86884.43;;;-8.83;40.05
36526;BME280;74736;46.798;9.824;2024-02-21T03:53:06;86885.72;;;-8.83;39.43
36526;BME280;74736;46.798;9.824;2024-02-21T03:55:33;86885.57;;;-9.18;39.04
36526;BME280;74736;46.798;9.824;2024-02-21T03:58:00;86885.37;;;-8.81;38.69
36526;BME280;74736;46.798;9.824;2024-02-21T04:00:27;86881.85;;;-9.93;38.55
36526;BME280;74736;46.798;9.824;2024-02-21T04:02:54;86880.94;;;-8.97;38.95
36526;BME280;74736;46.798;9.824;2024-02-21T04:05:22;86881.79;;;-9.65;40.56
36526;BME280;74736;46.798;9.824;2024-02-21T04:07:49;86881.47;;;-9.72;42.96
36526;BME280;74736;46.798;9.824;2024-02-21T04:10:16;86878.67;;;-9.73;41.81
36526;BME280;74736;46.798;9.824;2024-02-21T04:12:43;86876.57;;;-9.17;41.02
36526;BME280;74736;46.798;9.824;2024-02-21T04:15:10;86871.52;;;-8.41;38.79
36526;BME280;74736;46.798;9.824;2024-02-21T04:17:37;86864.03;;;-7.91;37.71
36526;BME280;74736;46.798;9.824;2024-02-21T04:20:05;86862.75;;;-7.66;37.70
36526;BME280;74736;46.798;9.824;2024-02-21T04:22:32;86865.92;;;-7.47;37.12
36526;BME280;74736;46.798;9.824;2024-02-21T04:24:59;86872.23;;;-7.88;37.11
36526;BME280;74736;46.798;9.824;2024-02-21T04:27:27;86878.59;;;-8.39;36.62
36526;BME280;74736;46.798;9.824;2024-02-21T04:29:53;86883.83;;;-9.64;38.24
36526;BME280;74736;46.798;9.824;2024-02-21T04:32:20;86882.22;;;-9.12;39.22
36526;BME280;74736;46.798;9.824;2024-02-21T04:34:48;86879.25;;;-8.54;38.56
36526;BME280;74736;46.798;9.824;2024-02-21T04:37:14;86874.73;;;-8.05;38.48
36526;BME280;74736;46.798;9.824;2024-02-21T04:39:41;86869.78;;;-8.03;37.86
36526;BME280;74736;46.798;9.824;2024-02-21T04:42:08;86866.00;;;-7.06;37.45
36526;BME280;74736;46.798;9.824;2024-02-21T04:44:35;86863.30;;;-7.14;36.10
36526;BME280;74736;46.798;9.824;2024-02-21T04:47:02;86863.81;;;-7.96;37.92
36526;BME280;74736;46.798;9.824;2024-02-21T04:49:28;86854.62;;;-8.55;37.84
36526;BME280;74736;46.798;9.824;2024-02-21T04:51:55;86853.79;;;-7.58;36.69
36526;BME280;74736;46.798;9.824;2024-02-21T04:54:23;86847.17;;;-7.65;36.31
36526;BME280;74736;46.798;9.824;2024-02-21T04:56:50;86846.71;;;-8.16;37.92
36526;BME280;74736;46.798;9.824;2024-02-21T04:59:17;86848.56;;;-8.92;39.21
36526;BME280;74736;46.798;9.824;2024-02-21T05:01:44;86850.28;;;-8.74;39.77
36526;BME280;74736;46.798;9.824;2024-02-21T05:04:11;86851.88;;;-9.26;39.62
36526;BME280;74736;46.798;9.824;2024-02-21T05:06:38;86850.53;;;-8.21;38.54
36526;BME280;74736;46.798;9.824;2024-02-21T05:09:06;86848.52;;;-9.17;38.89
36526;BME280;74736;46.798;9.824;2024-02-21T05:11:32;86846.80;;;-8.85;39.74
36526;BME280;74736;46.798;9.824;2024-02-21T05:13:59;86846.15;;;-9.07;39.69
36526;BME280;74736;46.798;9.824;2024-02-21T05:16:26;86840.82;;;-8.86;39.82
36526;BME280;74736;46.798;9.824;2024-02-21T05:18:54;86835.00;;;-10.03;40.29
36526;BME280;74736;46.798;9.824;2024-02-21T05:21:21;86830.22;;;-8.94;39.23
36526;BME280;74736;46.798;9.824;2024-02-21T05:23:48;86818.24;;;-8.36;38.62
36526;BME280;74736;46.798;9.824;2024-02-21T05:26:20;86809.70;;;-8.85;37.90
36526;BME280;74736;46.798;9.824;2024-02-21T05:28:47;86803.91;;;-9.62;38.89
36526;BME280;74736;46.798;9.824;2024-02-21T05:31:14;86804.10;;;-9.18;38.85
36526;BME280;74736;46.798;9.824;2024-02-21T05:33:41;86804.03;;;-10.60;41.16
36526;BME280;74736;46.798;9.824;2024-02-21T05:36:08;86805.89;;;-10.21;42.49
36526;BME280;74736;46.798;9.824;2024-02-21T05:38:35;86802.44;;;-9.95;41.68
36526;BME280;74736;46.798;9.824;2024-02-21T05:41:03;86797.54;;;-8.20;39.35
36526;BME280;74736;46.798;9.824;2024-02-21T05:43:30;86796.90;;;-8.87;39.30
36526;BME280;74736;46.798;9.824;2024-02-21T05:45:58;86790.36;;;-8.61;38.42
36526;BME280;74736;46.798;9.824;2024-02-21T05:48:25;86787.80;;;-7.52;37.44
36526;BME280;74736;46.798;9.824;2024-02-21T05:50:52;86787.67;;;-7.87;37.21
36526;BME280;74736;46.798;9.824;2024-02-21T05:53:19;86784.00;;;-7.78;37.71
36526;BME280;74736;46.798;9.824;2024-02-21T05:55:45;86780.12;;;-8.45;38.06
36526;BME280;74736;46.798;9.824;2024-02-21T05:58:12;86784.49;;;-9.10;39.17
36526;BME280;74736;46.798;9.824;2024-02-21T06:00:39;86779.70;;;-9.35;39.00
36526;BME280;74736;46.798;9.824;2024-02-21T06:03:06;86774.90;;;-8.05;37.87
36526;BME280;74736;46.798;9.824;2024-02-21T06:05:37;86773.75;;;-8.91;37.66
36526;BME280;74736;46.798;9.824;2024-02-21T06:08:04;86774.93;;;-8.24;37.67
36526;BME280;74736;46.798;9.824;2024-02-21T06:10:31;86775.86;;;-8.45;37.88
36526;BME280;74736;46.798;9.824;2024-02-21T06:12:58;86776.92;;;-7.60;37.39
36526;BME280;74736;46.798;9.824;2024-02-21T06:15:25;86777.08;;;-8.30;38.24
36526;BME280;74736;46.798;9.824;2024-02-21T06:17:51;86770.34;;;-8.31;37.88
36526;BME280;74736;46.798;9.824;2024-02-21T06:20:18;86767.56;;;-8.53;38.11
36526;BME280;74736;46.798;9.824;2024-02-21T06:22:45;86766.10;;;-8.27;37.73
36526;BME280;74736;46.798;9.824;2024-02-21T06:25:12;86765.13;;;-9.40;37.72
36526;BME280;74736;46.798;9.824;2024-02-21T06:27:39;86765.85;;;-9.27;37.71
36526;BME280;74736;46.798;9.824;2024-02-21T06:30:07;86768.34;;;-9.73;37.83
36526;BME280;74736;46.798;9.824;2024-02-21T06:32:34;86767.42;;;-7.90;36.97
36526;BME280;74736;46.798;9.824;2024-02-21T06:35:01;86765.45;;;-7.81;36.47
36526;BME280;74736;46.798;9.824;2024-02-21T06:37:28;86765.27;;;-7.68;36.24
36526;BME280;74736;46.798;9.824;2024-02-21T06:39:54;86770.24;;;-7.82;36.42
36526;BME280;74736;46.798;9.824;2024-02-21T06:42:21;86771.20;;;-7.29;36.23
36526;BME280;74736;46.798;9.824;2024-02-21T06:44:51;86773.75;;;-7.46;37.30
36526;BME280;74736;46.798;9.824;2024-02-21T06:47:18;86772.65;;;-8.53;38.02
36526;BME280;74736;46.798;9.824;2024-02-21T06:49:48;86768.28;;;-7.81;36.57
36526;BME280;74736;46.798;9.824;2024-02-21T06:52:17;86766.65;;;-7.22;36.32
36526;BME280;74736;46.798;9.824;2024-02-21T06:54:44;86765.36;;;-7.17;37.20
36526;BME280;74736;46.798;9.824;2024-02-21T06:57:11;86760.25;;;-6.97;36.37
36526;BME280;74736;46.798;9.824;2024-02-21T06:59:38;86761.85;;;-7.84;36.78
36526;BME280;74736;46.798;9.824;2024-02-21T07:02:05;86764.16;;;-6.51;35.51
36526;BME280;74736;46.798;9.824;2024-02-21T07:04:32;86767.24;;;-6.13;34.91
36526;BME280;74736;46.798;9.824;2024-02-21T07:06:59;86764.44;;;-5.61;34.26
36526;BME280;74736;46.798;9.824;2024-02-21T07:09:26;86768.06;;;-5.05;33.21
36526;BME280;74736;46.798;9.824;2024-02-21T07:11:53;86776.17;;;-4.98;33.95
36526;BME280;74736;46.798;9.824;2024-02-21T07:14:20;86785.51;;;-5.63;34.08
36526;BME280;74736;46.798;9.824;2024-02-21T07:16:46;86780.16;;;-5.27;31.64
36526;BME280;74736;46.798;9.824;2024-02-21T07:19:13;86771.38;;;-4.04;32.01
36526;BME280;74736;46.798;9.824;2024-02-21T07:21:40;86765.13;;;-4.60;31.75
36526;BME280;74736;46.798;9.824;2024-02-21T07:24:07;86767.60;;;-6.12;34.75
36526;BME280;74736;46.798;9.824;2024-02-21T07:26:34;86769.66;;;-6.54;35.00
36526;BME280;74736;46.798;9.824;2024-02-21T07:29:02;86765.97;;;-5.39;34.22
36526;BME280;74736;46.798;9.824;2024-02-21T07:31:28;86764.84;;;-5.10;36.27
36526;BME280;74736;46.798;9.824;2024-02-21T07:33:55;86764.96;;;-4.81;33.14
36526;BME280;74736;46.798;9.824;2024-02-21T07:36:28;86767.67;;;-4.59;35.10
36526;BME280;74736;46.798;9.824;2024-02-21T07:38:55;86770.19;;;-6.14;35.52
36526;BME280;74736;46.798;9.824;2024-02-21T07:41:21;86773.42;;;-5.87;35.53
36526;BME280;74736;46.798;9.824;2024-02-21T07:43:48;86773.20;;;-4.44;34.04
36526;BME280;74736;46.798;9.824;2024-02-21T07:46:15;86777.20;;;-3.92;32.40
36526;BME280;74736;46.798;9.824;2024-02-21T07:48:41;86774.18;;;-3.62;31.92
36526;BME280;74736;46.798;9.824;2024-02-21T07:51:08;86770.55;;;-3.89;31.45
36526;BME280;74736;46.798;9.824;2024-02-21T07:53:35;86768.56;;;-3.91;31.78
36526;BME280;74736;46.798;9.824;2024-02-21T07:56:01;86766.09;;;-4.02;31.18
36526;BME280;74736;46.798;9.824;2024-02-21T07:58:39;86758.27;;;-3.92;31.42
36526;BME280;74736;46.798;9.824;2024-02-21T08:01:06;86756.12;;;-3.43;31.15
36526;BME280;74736;46.798;9.824;2024-02-21T08:03:34;86750.12;;;-3.59;30.82
36526;BME280;74736;46.798;9.824;2024-02-21T08:06:02;86749.41;;;-2.53;31.06
36526;BME280;74736;46.798;9.824;2024-02-21T08:08:29;86750.48;;;-2.85;30.75
36526;BME280;74736;46.798;9.824;2024-02-21T08:10:56;86752.25;;;-3.78;31.74
36526;BME280;74736;46.798;9.824;2024-02-21T08:13:24;86746.35;;;-3.89;31.73
36526;BME280;74736;46.798;9.824;2024-02-21T08:15:51;86743.48;;;-3.77;30.69
36526;BME280;74736;46.798;9.824;2024-02-21T08:18:17;86737.23;;;-3.81;30.41
36526;BME280;74736;46.798;9.824;2024-02-21T08:20:45;86733.16;;;-2.65;29.14
36526;BME280;74736;46.798;9.824;2024-02-21T08:23:11;86722.00;;;-2.99;30.15
36526;BME280;74736;46.798;9.824;2024-02-21T08:25:39;86715.37;;;-2.71;28.13
36526;BME280;74736;46.798;9.824;2024-02-21T08:28:06;86712.12;;;-1.93;29.07
36526;BME280;74736;46.798;9.824;2024-02-21T08:30:33;86708.38;;;-2.92;30.36
36526;BME280;74736;46.798;9.824;2024-02-21T08:33:00;86703.48;;;-2.84;31.11
36526;BME280;74736;46.798;9.824;2024-02-21T08:35:26;86702.81;;;-3.27;33.60
36526;BME280;74736;46.798;9.824;2024-02-21T08:37:53;86701.84;;;-2.25;33.22
36526;BME280;74736;46.798;9.824;2024-02-21T08:40:20;86697.68;;;-2.38;31.96
36526;BME280;74736;46.798;9.824;2024-02-21T08:42:47;86699.63;;;-3.69;32.64
36526;BME280;74736;46.798;9.824;2024-02-21T08:45:14;86695.66;;;-2.30;31.61
36526;BME280;74736;46.798;9.824;2024-02-21T08:47:42;86698.05;;;-1.17;30.61
36526;BME280;74736;46.798;9.824;2024-02-21T08:50:10;86695.42;;;-1.38;30.80
36526;BME280;74736;46.798;9.824;2024-02-21T08:52:37;86688.17;;;-2.64;29.78
36526;BME280;74736;46.798;9.824;2024-02-21T08:55:06;86689.88;;;-3.50;29.78
36526;BME280;74736;46.798;9.824;2024-02-21T08:57:33;86690.26;;;-1.41;28.78
36526;BME280;74736;46.798;9.824;2024-02-21T09:00:00;86680.97;;;-1.39;28.31
36526;BME280;74736;46.798;9.824;2024-02-21T09:02:28;86677.38;;;-1.91;28.42
36526;BME280;74736;46.798;9.824;2024-02-21T09:04:55;86677.26;;;-1.16;28.17
36526;BME280;74736;46.798;9.824;2024-02-21T09:07:22;86673.32;;;-0.57;28.35
36526;BME280;74736;46.798;9.824;2024-02-21T09:09:50;86670.09;;;-1.44;27.97
36526;BME280;74736;46.798;9.824;2024-02-21T09:12:17;86673.92;;;-1.79;27.21
36526;BME280;74736;46.798;9.824;2024-02-21T09:14:44;86674.80;;;-0.85;26.48
36526;BME280;74736;46.798;9.824;2024-02-21T09:17:12;86672.36;;;-0.23;26.45
36526;BME280;74736;46.798;9.824;2024-02-21T09:19:39;86671.05;;;-0.91;26.22
36526;BME280;74736;46.798;9.824;2024-02-21T09:22:06;86675.84;;;-1.19;26.54
36526;BME280;74736;46.798;9.824;2024-02-21T09:24:34;86673.77;;;-0.12;26.51
36526;BME280;74736;46.798;9.824;2024-02-21T09:27:01;86677.26;;;-0.56;28.87
36526;BME280;74736;46.798;9.824;2024-02-21T09:29:28;86674.49;;;-1.69;30.55
36526;BME280;74736;46.798;9.824;2024-02-21T09:31:56;86675.43;;;-0.54;29.53
36526;BME280;74736;46.798;9.824;2024-02-21T09:34:23;86672.31;;;-1.13;30.24
36526;BME280;74736;46.798;9.824;2024-02-21T09:36:51;86671.91;;;-0.56;29.22
36526;BME280;74736;46.798;9.824;2024-02-21T09:39:19;86665.33;;;-0.33;29.23
36526;BME280;74736;46.798;9.824;2024-02-21T09:41:50;86658.91;;;-0.20;28.92
36526;BME280;74736;46.798;9.824;2024-02-21T09:44:20;86656.41;;;0.38;27.02
36526;BME280;74736;46.798;9.824;2024-02-21T09:46:54;86655.24;;;-0.50;27.58
36526;BME280;74736;46.798;9.824;2024-02-21T09:49:30;86653.71;;;0.67;26.80
36526;BME280;74736;46.798;9.824;2024-02-21T09:52:00;86654.96;;;-0.29;28.71
36526;BME280;74736;46.798;9.824;2024-02-21T09:54:28;86663.50;;;-1.23;30.05
36526;BME280;74736;46.798;9.824;2024-02-21T09:56:56;86663.41;;;-1.09;30.27
36526;BME280;74736;46.798;9.824;2024-02-21T09:59:24;86657.18;;;-1.07;30.30
36526;BME280;74736;46.798;9.824;2024-02-21T10:01:51;86657.75;;;0.20;29.58
36526;BME280;74736;46.798;9.824;2024-02-21T10:04:19;86656.71;;;-0.41;30.03
36526;BME280;74736;46.798;9.824;2024-02-21T10:06:47;86653.21;;;0.65;26.36
36526;BME280;74736;46.798;9.824;2024-02-21T10:09:22;86651.56;;;1.04;27.15
36526;BME280;74736;46.798;9.824;2024-02-21T10:11:49;86647.49;;;-0.41;28.64
36526;BME280;74736;46.798;9.824;2024-02-21T10:14:16;86647.85;;;-0.33;28.71
36526;BME280;74736;46.798;9.824;2024-02-21T10:16:44;86641.05;;;0.32;27.83
36526;BME280;74736;46.798;9.824;2024-02-21T10:19:17;86644.20;;;-0.31;28.21
36526;BME280;74736;46.798;9.824;2024-02-21T10:21:44;86639.69;;;-0.59;29.10
36526;BME280;74736;46.798;9.824;2024-02-21T10:24:12;86638.89;;;-0.98;29.66
36526;BME280;74736;46.798;9.824;2024-02-21T10:26:39;86635.82;;;0.15;28.68
36526;BME280;74736;46.798;9.824;2024-02-21T10:29:06;86632.60;;;-1.07;28.92
36526;BME280;74736;46.798;9.824;2024-02-21T10:31:34;86630.02;;;-0.91;29.83
36526;BME280;74736;46.798;9.824;2024-02-21T10:34:01;86625.05;;;-0.65;29.07
36526;BME280;74736;46.798;9.824;2024-02-21T10:36:29;86623.28;;;0.11;28.37
36526;BME280;74736;46.798;9.824;2024-02-21T10:38:56;86620.79;;;-0.36;29.39
36526;BME280;74736;46.798;9.824;2024-02-21T10:41:24;86614.84;;;0.09;28.51
36526;BME280;74736;46.798;9.824;2024-02-21T10:43:52;86610.75;;;0.57;28.12
36526;BME280;74736;46.798;9.824;2024-02-21T10:46:22;86603.66;;;1.34;26.22
36526;BME280;74736;46.798;9.824;2024-02-21T10:49:01;86599.97;;;1.76;25.18
36526;BME280;74736;46.798;9.824;2024-02-21T10:51:33;86594.66;;;2.17;23.21
36526;BME280;74736;46.798;9.824;2024-02-21T10:54:11;86591.14;;;3.10;22.92
36526;BME280;74736;46.798;9.824;2024-02-21T10:56:40;86587.18;;;3.38;22.24
36526;BME280;74736;46.798;9.824;2024-02-21T10:59:08;86585.99;;;2.69;24.34
36526;BME280;74736;46.798;9.824;2024-02-21T11:01:35;86582.69;;;2.36;25.18
36526;BME280;74736;46.798;9.824;2024-02-21T11:04:05;86577.04;;;2.48;25.50
36526;BME280;74736;46.798;9.824;2024-02-21T11:06:33;86577.20;;;2.34;26.23
36526;BME280;74736;46.798;9.824;2024-02-21T11:09:02;86574.58;;;3.21;25.40
36526;BME280;74736;46.798;9.824;2024-02-21T11:11:32;86572.96;;;3.60;24.28
36526;BME280;74736;46.798;9.824;2024-02-21T11:14:08;86564.90;;;3.46;24.10
36526;BME280;74736;46.798;9.824;2024-02-21T11:16:37;86561.19;;;3.76;24.31
36526;BME280;74736;46.798;9.824;2024-02-21T11:19:05;86560.72;;;4.11;23.67
36526;BME280;74736;46.798;9.824;2024-02-21T11:21:34;86559.07;;;3.73;24.13
36526;BME280;74736;46.798;9.824;2024-02-21T11:24:01;86552.46;;;4.15;22.80
36526;BME280;74736;46.798;9.824;2024-02-21T11:26:30;86547.68;;;4.28;23.60
36526;BME280;74736;46.798;9.824;2024-02-21T11:28:58;86545.87;;;3.69;23.93
36526;BME280;74736;46.798;9.824;2024-02-21T11:31:26;86539.46;;;3.56;23.76
36526;BME280;74736;46.798;9.824;2024-02-21T11:33:53;86537.55;;;3.10;23.90
36526;BME280;74736;46.798;9.824;2024-02-21T11:36:25;86530.28;;;3.56;23.54
36526;BME280;74736;46.798;9.824;2024-02-21T11:38:52;86525.32;;;3.79;23.96
36526;BME280;74736;46.798;9.824;2024-02-21T11:41:19;86522.82;;;4.42;22.95
36526;BME280;74736;46.798;9.824;2024-02-21T11:43:48;86520.67;;;2.63;24.08
36526;BME280;74736;46.798;9.824;2024-02-21T11:46:15;86521.73;;;3.34;24.08
36526;BME280;74736;46.798;9.824;2024-02-21T11:48:43;86518.88;;;3.45;24.07
36526;BME280;74736;46.798;9.824;2024-02-21T11:51:10;86511.34;;;4.46;23.13
36526;BME280;74736;46.798;9.824;2024-02-21T11:53:37;86507.33;;;3.60;24.61
36526;BME280;74736;46.798;9.824;2024-02-21T11:56:05;86502.09;;;3.95;24.49
36526;BME280;74736;46.798;9.824;2024-02-21T11:58:32;86493.34;;;3.40;25.19
36526;BME280;74736;46.798;9.824;2024-02-21T12:01:00;86486.49;;;3.19;24.59
36526;BME280;74736;46.798;9.824;2024-02-21T12:03:27;86476.62;;;3.53;24.06
36526;BME280;74736;46.798;9.824;2024-02-21T12:05:55;86471.86;;;3.75;23.88
36526;BME280;74736;46.798;9.824;2024-02-21T12:08:21;86466.84;;;4.37;24.72
36526;BME280;74736;46.798;9.824;2024-02-21T12:10:48;86461.53;;;4.47;23.95
36526;BME280;74736;46.798;9.824;2024-02-21T12:13:16;86455.38;;;4.28;23.40
36526;BME280;74736;46.798;9.824;2024-02-21T12:15:47;86457.28;;;3.09;24.79
36526;BME280;74736;46.798;9.824;2024-02-21T12:18:14;86450.49;;;3.91;24.79
36526;BME280;74736;46.798;9.824;2024-02-21T12:20:42;86445.51;;;3.59;25.64
36526;BME280;74736;46.798;9.824;2024-02-21T12:23:10;86441.23;;;2.52;24.67
36526;BME280;74736;46.798;9.824;2024-02-21T12:25:39;86432.07;;;3.30;24.87
36526;BME280;74736;46.798;9.824;2024-02-21T12:28:06;86431.25;;;4.18;25.09
36526;BME280;74736;46.798;9.824;2024-02-21T12:30:33;86428.88;;;4.12;24.10
36526;BME280;74736;46.798;9.824;2024-02-21T12:33:00;86424.38;;;3.86;24.15
36526;BME280;74736;46.798;9.824;2024-02-21T12:35:27;86427.16;;;3.02;23.95
36526;BME280;74736;46.798;9.824;2024-02-21T12:37:55;86417.46;;;4.26;24.01
36526;BME280;74736;46.798;9.824;2024-02-21T12:40:22;86418.95;;;3.49;24.83
36526;BME280;74736;46.798;9.824;2024-02-21T12:42:49;86411.38;;;4.53;23.35
36526;BME280;74736;46.798;9.824;2024-02-21T12:45:16;86407.10;;;4.36;23.49
36526;BME280;74736;46.798;9.824;2024-02-21T12:47:43;86401.18;;;4.93;22.83
36526;BME280;74736;46.798;9.824;2024-02-21T12:50:10;86395.33;;;4.94;22.14
36526;BME280;74736;46.798;9.824;2024-02-21T12:52:38;86392.95;;;5.62;22.28
36526;BME280;74736;46.798;9.824;2024-02-21T12:55:06;86386.63;;;4.63;22.23
36526;BME280;74736;46.798;9.824;2024-02-21T12:57:33;86383.99;;;5.21;22.04
36526;BME280;74736;46.798;9.824;2024-02-21T13:00:00;86380.53;;;5.85;21.84
36526;BME280;74736;46.798;9.824;2024-02-21T13:02:27;86380.74;;;5.82;21.43
36526;BME280;74736;46.798;9.824;2024-02-21T13:04:54;86378.17;;;5.86;22.16